Time;durP1;ratioP1;P1;durP2;ratioP2;P2;SDS_P1;SDS_P2;PMS_P1;PMS_P2;Temp;Humidity;BMP_temperature;BMP_pressure;BME280_temperature;BME280_humidity;BME280_pressure;Samples;Min_cycle;Max_cycle;Signal;HPM_P1;HPM_P2
2022/12/17 13:06:54;;;;;;;78.15;47.40;;;0.40;99.90;;;;;;5126434;27;20142;-44
2022/12/17 13:09:26;;;;;;;86.05;51.35;;;0.40;99.90;;;;;;5119381;27;20126;-42
2022/12/17 13:12:04;;;;;;;84.75;49.92;;;0.40;99.90;;;;;;5116850;27;20047;-44
2022/12/17 13:14:52;;;;;;;83.10;51.35;;;0.40;99.90;;;;;;5116688;27;20047;-45
2022/12/17 13:17:26;;;;;;;83.95;52.65;;;0.40;99.90;;;;;;5134153;27;20119;-42
2022/12/17 13:20:18;;;;;;;89.50;54.42;;;0.30;99.90;;;;;;5126461;27;20080;-43
2022/12/17 13:23:13;;;;;;;89.25;50.22;;;0.30;99.90;;;;;;5125016;27;20092;-44
2022/12/17 13:25:39;;;;;;;87.88;50.67;;;0.30;99.90;;;;;;5136801;27;20482;-44
2022/12/17 13:28:24;;;;;;;81.88;50.03;;;0.30;99.90;;;;;;5137675;27;20042;-46
2022/12/17 13:31:00;;;;;;;84.43;50.63;;;0.30;99.90;;;;;;5122365;27;20399;-42
2022/12/17 13:33:38;;;;;;;90.50;52.45;;;0.30;99.90;;;;;;5123200;27;20047;-43
2022/12/17 13:36:31;;;;;;;92.10;54.88;;;0.30;99.90;;;;;;5128073;27;20050;-44
2022/12/17 13:39:36;;;;;;;86.80;54.55;;;0.20;99.90;;;;;;5116750;27;20480;-46
2022/12/17 13:42:02;;;;;;;89.07;52.30;;;0.20;99.90;;;;;;5017048;28;20058;-44
2022/12/17 13:44:38;;;;;;;91.07;51.33;;;0.20;99.90;;;;;;5020062;28;20045;-42
2022/12/17 13:47:04;;;;;;;88.38;50.22;;;0.20;99.90;;;;;;5012196;28;20095;-45
2022/12/17 13:49:30;;;;;;;94.03;54.78;;;0.10;99.90;;;;;;5012497;28;20094;-46
2022/12/17 13:52:04;;;;;;;90.28;51.72;;;0.10;99.90;;;;;;5012763;28;20065;-44
2022/12/17 13:54:29;;;;;;;91.72;53.38;;;0.10;99.90;;;;;;5015923;28;20133;-48
2022/12/17 13:57:06;;;;;;;92.97;53.20;;;0.10;99.90;;;;;;5023354;28;20053;-43
2022/12/17 13:59:32;;;;;;;97.40;54.63;;;0.10;99.90;;;;;;5012686;28;20069;-44
2022/12/17 14:01:58;;;;;;;97.75;55.42;;;0.10;99.90;;;;;;5012076;28;20155;-42
2022/12/17 14:04:26;;;;;;;92.10;52.47;;;0.00;99.90;;;;;;5012296;28;20399;-43
2022/12/17 14:06:54;;;;;;;97.82;54.55;;;0.00;99.90;;;;;;5020951;28;20053;-45
2022/12/17 14:09:23;;;;;;;96.88;53.58;;;0.00;99.90;;;;;;5015691;28;20042;-43
2022/12/17 14:14:39;;;;;;;111.80;62.00;;;-0.10;99.90;;;;;;5018611;28;20055;-44
2022/12/17 14:17:06;;;;;;;105.60;57.45;;;-0.20;99.90;;;;;;5019275;28;20108;-43
2022/12/17 14:19:32;;;;;;;100.70;56.17;;;-0.20;99.90;;;;;;5113744;27;20050;-47
2022/12/17 14:21:59;;;;;;;110.35;58.80;;;-0.20;99.90;;;;;;5121156;27;20039;-42
2022/12/17 14:24:28;;;;;;;113.63;61.95;;;-0.20;99.90;;;;;;5110492;27;20050;-42
2022/12/17 14:26:58;;;;;;;109.55;60.05;;;-0.30;99.90;;;;;;5123237;27;20416;-42
2022/12/17 14:29:30;;;;;;;110.22;59.03;;;-0.40;99.90;;;;;;5117229;27;20457;-41
2022/12/17 14:32:01;;;;;;;110.93;59.58;;;-0.40;99.90;;;;;;5121386;27;20047;-44
2022/12/17 14:34:28;;;;;;;116.63;62.28;;;-0.40;99.90;;;;;;5125565;27;20153;-44
2022/12/17 14:36:57;;;;;;;110.65;60.83;;;-0.40;99.90;;;;;;5119244;27;20393;-44
2022/12/17 14:39:28;;;;;;;116.13;60.40;;;-0.50;99.90;;;;;;5125629;27;20508;-42
2022/12/17 14:45:11;;;;;;;107.97;58.90;;;-0.60;99.90;;;;;;5116623;27;20576;-43
2022/12/17 14:47:37;;;;;;;116.45;60.50;;;-0.60;99.90;;;;;;5110253;27;20050;-43
2022/12/17 14:50:12;;;;;;;110.57;58.40;;;-0.60;99.90;;;;;;5116607;27;20046;-43
2022/12/17 14:52:39;;;;;;;112.47;57.70;;;-0.60;99.90;;;;;;5116219;27;20085;-42
2022/12/17 14:55:26;;;;;;;114.80;60.20;;;-0.70;99.90;;;;;;5121741;27;20047;-44
2022/12/17 14:57:53;;;;;;;113.32;60.88;;;-0.70;99.90;;;;;;5120448;27;20446;-43
2022/12/17 15:00:20;;;;;;;105.82;56.15;;;-0.70;99.90;;;;;;5125899;27;20493;-43
2022/12/17 15:02:51;;;;;;;110.95;57.53;;;-0.80;99.90;;;;;;5103182;27;20521;-45
2022/12/17 15:05:17;;;;;;;119.53;61.38;;;-0.80;99.90;;;;;;5129031;27;20055;-43
2022/12/17 15:07:42;;;;;;;117.15;60.22;;;-0.80;99.90;;;;;;5138626;27;20046;-42
2022/12/17 15:10:13;;;;;;;110.97;58.88;;;-0.90;99.90;;;;;;5126174;27;20377;-44
2022/12/17 15:12:43;;;;;;;108.13;57.88;;;-0.90;99.90;;;;;;5118468;27;20047;-42
2022/12/17 15:15:14;;;;;;;112.40;58.45;;;-1.00;99.90;;;;;;5100205;27;20892;-42
2022/12/17 15:17:39;;;;;;;112.28;58.22;;;-0.90;99.90;;;;;;5119258;27;20139;-41
2022/12/17 15:20:05;;;;;;;114.68;60.60;;;-1.00;99.90;;;;;;5118976;27;20067;-41
2022/12/17 15:22:31;;;;;;;114.88;57.67;;;-1.00;99.90;;;;;;5119106;27;20491;-42
2022/12/17 15:24:57;;;;;;;113.85;58.55;;;-1.00;99.90;;;;;;5124578;27;20157;-44
2022/12/17 15:27:22;;;;;;;108.95;56.38;;;-1.10;99.90;;;;;;5119835;27;20386;-42
2022/12/17 15:29:48;;;;;;;111.18;54.72;;;-1.10;99.90;;;;;;5126045;27;20664;-42
2022/12/17 15:32:22;;;;;;;109.22;54.78;;;-1.10;99.90;;;;;;5121053;27;20096;-42
2022/12/17 15:34:49;;;;;;;112.25;56.00;;;-1.10;99.90;;;;;;5118123;27;20051;-41
2022/12/17 15:37:16;;;;;;;118.20;57.47;;;-1.20;99.90;;;;;;5118394;27;20058;-43
2022/12/17 15:39:42;;;;;;;119.82;59.63;;;-1.20;99.90;;;;;;5119000;27;20058;-43
2022/12/17 15:44:53;;;;;;;116.18;59.10;;;-1.30;99.90;;;;;;5136271;27;20112;-47
2022/12/17 15:47:19;;;;;;;116.00;57.78;;;-1.40;99.90;;;;;;5124971;27;20051;-42
2022/12/17 15:49:44;;;;;;;117.07;55.88;;;-1.30;99.90;;;;;;5119147;27;20047;-41
2022/12/17 15:52:13;;;;;;;116.20;58.67;;;-1.40;99.90;;;;;;5128170;27;20258;-43
2022/12/17 15:54:40;;;;;;;114.72;57.30;;;-1.40;99.90;;;;;;5086032;27;20567;-44
2022/12/17 15:57:06;;;;;;;114.38;54.45;;;-1.40;99.90;;;;;;5118895;27;20073;-44
2022/12/17 15:59:32;;;;;;;113.65;55.97;;;-1.40;99.90;;;;;;5118922;27;20439;-42
2022/12/17 16:01:58;;;;;;;111.43;57.40;;;-1.40;99.90;;;;;;5099901;27;20126;-42
2022/12/17 16:04:23;;;;;;;123.68;58.83;;;-1.50;99.90;;;;;;5105552;27;20170;-47
2022/12/17 16:06:49;;;;;;;121.30;55.85;;;-1.50;99.90;;;;;;5118806;27;20143;-44
2022/12/17 16:09:15;;;;;;;119.95;56.55;;;-1.40;99.90;;;;;;5117237;27;20046;-43
2022/12/17 16:11:40;;;;;;;121.82;58.20;;;-1.40;99.90;;;;;;5116996;27;20058;-42
2022/12/17 16:14:06;;;;;;;116.70;53.67;;;-1.60;99.90;;;;;;5120814;27;20509;-44
2022/12/17 16:16:32;;;;;;;116.70;56.67;;;-1.60;99.90;;;;;;5137593;27;20415;-41
2022/12/17 16:18:57;;;;;;;116.47;56.35;;;-1.50;99.90;;;;;;5126099;27;20051;-42
2022/12/17 16:21:23;;;;;;;110.90;55.00;;;-1.60;99.90;;;;;;5138692;27;20467;-43
2022/12/17 16:23:49;;;;;;;122.25;59.17;;;-1.60;99.90;;;;;;5131234;27;20587;-42
2022/12/17 16:26:14;;;;;;;119.53;59.80;;;-1.60;99.90;;;;;;5119291;27;20073;-41
2022/12/17 16:28:40;;;;;;;126.13;60.65;;;-1.60;99.90;;;;;;5138393;27;20043;-43
2022/12/17 16:31:10;;;;;;;124.32;55.83;;;-1.70;99.90;;;;;;5128930;27;20142;-43
2022/12/17 16:33:38;;;;;;;118.65;56.95;;;-1.60;99.90;;;;;;5117669;27;20476;-42
2022/12/17 16:36:06;;;;;;;122.97;58.17;;;-1.80;99.90;;;;;;5118795;27;20058;-46
2022/12/17 16:38:32;;;;;;;128.88;57.92;;;-1.80;99.90;;;;;;5095653;27;20067;-43
2022/12/17 16:41:00;;;;;;;115.90;56.08;;;-1.80;99.90;;;;;;5117114;27;20075;-43
2022/12/17 16:43:31;;;;;;;121.65;57.63;;;-1.90;99.90;;;;;;5128642;27;21954;-44
2022/12/17 16:45:56;;;;;;;123.00;55.05;;;-1.90;99.90;;;;;;5129897;27;20049;-44
2022/12/17 16:48:22;;;;;;;120.93;56.03;;;-1.90;99.90;;;;;;5124856;27;20840;-42
2022/12/17 16:50:49;;;;;;;119.40;54.15;;;-2.00;99.90;;;;;;5126032;27;20043;-42
2022/12/17 16:53:15;;;;;;;124.38;56.15;;;-1.90;99.90;;;;;;5124334;27;20492;-44
2022/12/17 16:55:46;;;;;;;122.15;52.78;;;-2.00;99.90;;;;;;5116941;27;20494;-42
2022/12/17 16:58:13;;;;;;;120.82;51.80;;;-2.00;99.90;;;;;;5122044;27;20050;-44
2022/12/17 17:00:39;;;;;;;116.10;52.25;;;-2.00;99.90;;;;;;5127031;27;20841;-43
2022/12/17 17:03:06;;;;;;;126.05;56.33;;;-2.00;99.90;;;;;;5130129;27;20072;-45
2022/12/17 17:05:34;;;;;;;122.25;54.40;;;-2.10;99.90;;;;;;5120704;27;20531;-46
2022/12/17 17:08:00;;;;;;;125.82;54.92;;;-2.10;99.90;;;;;;5116415;27;20541;-43
2022/12/17 17:10:26;;;;;;;123.20;55.35;;;-2.00;99.90;;;;;;5116619;27;20142;-45
2022/12/17 17:12:52;;;;;;;122.13;51.45;;;-2.00;99.90;;;;;;5121152;27;20127;-43
2022/12/17 17:15:18;;;;;;;120.88;53.55;;;-2.10;99.90;;;;;;5112584;27;20070;-42
2022/12/17 17:17:44;;;;;;;122.30;52.63;;;-2.10;99.90;;;;;;5135909;27;20058;-41
2022/12/17 17:20:11;;;;;;;127.05;54.53;;;-2.20;99.90;;;;;;5103898;27;20047;-42
2022/12/17 17:22:36;;;;;;;127.30;55.67;;;-2.20;99.90;;;;;;5117266;27;20062;-46
2022/12/17 17:25:03;;;;;;;117.60;51.97;;;-2.10;99.90;;;;;;5117236;27;21044;-44
2022/12/17 17:27:30;;;;;;;125.15;52.80;;;-2.10;99.90;;;;;;5117818;27;20118;-43
2022/12/17 17:29:57;;;;;;;123.65;55.08;;;-2.20;99.90;;;;;;5129914;27;20051;-46
2022/12/17 17:32:23;;;;;;;122.25;53.70;;;-2.20;99.90;;;;;;5122988;27;20046;-42
2022/12/17 17:34:49;;;;;;;129.13;54.65;;;-2.30;99.90;;;;;;5123362;27;20172;-42
2022/12/17 17:37:15;;;;;;;137.60;58.10;;;-2.30;99.90;;;;;;5123582;27;20047;-43
2022/12/17 17:39:41;;;;;;;132.82;58.58;;;-2.20;99.90;;;;;;5124137;27;20503;-44
2022/12/17 17:42:07;;;;;;;123.97;54.28;;;-2.30;99.90;;;;;;5129924;27;20124;-44
2022/12/17 17:44:33;;;;;;;134.73;56.28;;;-2.20;99.90;;;;;;5097377;27;20054;-42
2022/12/17 17:46:59;;;;;;;125.68;52.72;;;-2.40;99.90;;;;;;5116203;27;20478;-43
2022/12/17 17:49:24;;;;;;;120.88;51.83;;;-2.40;99.90;;;;;;5081515;27;20392;-41
2022/12/17 17:51:50;;;;;;;130.15;54.85;;;-2.40;99.90;;;;;;5130233;27;20054;-42
2022/12/17 17:54:16;;;;;;;135.57;56.35;;;-2.40;99.90;;;;;;5116185;27;20639;-42
2022/12/17 17:56:42;;;;;;;133.32;56.00;;;-2.40;99.90;;;;;;5134073;27;20066;-45
2022/12/17 17:59:10;;;;;;;130.13;52.83;;;-2.40;99.90;;;;;;5136633;27;20061;-42
2022/12/17 18:01:41;;;;;;;132.93;56.33;;;-2.50;99.90;;;;;;5136426;27;20102;-44
2022/12/17 18:04:10;;;;;;;136.50;56.75;;;-2.40;99.90;;;;;;5121331;27;20047;-42
2022/12/17 18:06:38;;;;;;;130.40;55.25;;;-2.40;99.90;;;;;;5115811;27;20121;-43
2022/12/17 18:09:04;;;;;;;133.50;56.83;;;-2.50;99.90;;;;;;5116412;27;20042;-42
2022/12/17 18:11:31;;;;;;;136.68;56.58;;;-2.50;99.90;;;;;;5119741;27;20034;-45
2022/12/17 18:13:57;;;;;;;134.65;54.83;;;-2.50;99.90;;;;;;5132278;27;20073;-42
2022/12/17 18:16:31;;;;;;;138.20;57.45;;;-2.60;99.90;;;;;;5125664;27;20043;-44
2022/12/17 18:18:59;;;;;;;134.73;56.35;;;-2.50;99.90;;;;;;5099890;27;20039;-43
2022/12/17 18:21:27;;;;;;;139.65;55.95;;;-2.60;99.90;;;;;;5105644;27;20119;-41
2022/12/17 18:24:04;;;;;;;135.52;54.00;;;-2.60;99.90;;;;;;5112909;27;20468;-42
2022/12/17 18:26:32;;;;;;;133.98;54.13;;;-2.60;99.90;;;;;;5135771;27;20042;-42
2022/12/17 18:29:01;;;;;;;143.95;58.53;;;-2.50;99.90;;;;;;5132452;27;20056;-41
2022/12/17 18:31:28;;;;;;;142.68;57.00;;;-2.60;99.90;;;;;;5136460;27;20078;-43
2022/12/17 18:33:59;;;;;;;140.85;57.35;;;-2.50;99.90;;;;;;5130584;27;20244;-40
2022/12/17 18:36:31;;;;;;;144.30;54.83;;;-2.60;99.90;;;;;;5115895;27;20086;-43
2022/12/17 18:39:24;;;;;;;139.77;54.30;;;-2.60;99.90;;;;;;5116155;27;20043;-43
2022/12/17 18:44:38;;;;;;;139.57;58.15;;;-2.60;99.90;;;;;;5074807;28;20509;-42
2022/12/17 18:47:04;;;;;;;135.80;52.60;;;-2.70;99.90;;;;;;5070901;28;20064;-43
2022/12/17 18:49:29;;;;;;;135.70;55.35;;;-2.60;99.90;;;;;;5054774;28;20577;-42
2022/12/17 18:51:55;;;;;;;148.18;58.63;;;-2.60;99.90;;;;;;5070390;28;20079;-42
2022/12/17 18:54:23;;;;;;;152.07;61.20;;;-2.60;99.90;;;;;;5043077;28;20563;-41
2022/12/17 18:56:50;;;;;;;142.57;57.75;;;-2.50;99.90;;;;;;5065777;28;20753;-40
2022/12/17 18:59:18;;;;;;;148.05;57.83;;;-2.50;99.90;;;;;;5052758;28;20488;-41
2022/12/17 19:01:44;;;;;;;141.20;58.88;;;-2.60;99.90;;;;;;5052258;28;20051;-43
2022/12/17 19:04:12;;;;;;;142.68;60.95;;;-2.60;99.90;;;;;;5069607;28;20048;-41
2022/12/17 19:06:38;;;;;;;143.48;57.00;;;-2.60;99.90;;;;;;5072651;28;20286;-43
2022/12/17 19:09:06;;;;;;;134.43;53.05;;;-2.60;99.90;;;;;;5072870;28;20040;-44
2022/12/17 19:11:34;;;;;;;136.60;54.88;;;-2.60;99.90;;;;;;5072021;28;20083;-42
2022/12/17 19:14:00;;;;;;;133.85;54.47;;;-2.50;99.90;;;;;;5070586;28;20070;-43
2022/12/17 19:16:27;;;;;;;143.45;54.28;;;-2.50;99.90;;;;;;5055236;28;20402;-42
2022/12/17 19:19:00;;;;;;;140.38;54.00;;;-2.60;99.90;;;;;;5092610;27;20087;-41
2022/12/17 19:21:26;;;;;;;141.82;55.25;;;-2.60;99.90;;;;;;5117137;27;20043;-41
2022/12/17 19:24:00;;;;;;;148.15;54.95;;;-2.60;99.90;;;;;;5116995;27;20169;-44
2022/12/17 19:26:27;;;;;;;146.98;55.65;;;-2.60;99.90;;;;;;5115721;27;20092;-43
2022/12/17 19:28:54;;;;;;;136.15;51.63;;;-2.50;99.90;;;;;;5114388;27;20082;-44
2022/12/17 19:31:22;;;;;;;138.70;53.90;;;-2.60;99.90;;;;;;5078787;27;20070;-44
2022/12/17 19:33:48;;;;;;;141.02;55.35;;;-2.60;99.90;;;;;;5112892;27;20130;-43
2022/12/17 19:36:17;;;;;;;137.90;53.53;;;-2.60;99.90;;;;;;5113151;27;20050;-43
2022/12/17 19:38:44;;;;;;;147.20;58.55;;;-2.50;99.90;;;;;;5121606;27;20595;-42
2022/12/17 19:41:15;;;;;;;140.07;55.42;;;-2.60;99.90;;;;;;5110241;27;20042;-45
2022/12/17 19:43:45;;;;;;;132.02;52.90;;;-2.60;99.90;;;;;;5094171;27;20494;-41
2022/12/17 19:46:16;;;;;;;144.38;53.20;;;-2.60;99.90;;;;;;5114603;27;20608;-41
2022/12/17 19:48:43;;;;;;;143.20;54.10;;;-2.50;99.90;;;;;;5128350;27;20311;-43
2022/12/17 19:51:11;;;;;;;140.75;56.05;;;-2.60;99.90;;;;;;5123433;27;20538;-44
2022/12/17 19:53:38;;;;;;;133.18;50.80;;;-2.60;99.90;;;;;;5116037;27;20043;-42
2022/12/17 19:56:29;;;;;;;138.98;53.30;;;-2.50;99.90;;;;;;5098692;27;20093;-45
2022/12/17 19:58:59;;;;;;;132.93;52.97;;;-2.60;99.90;;;;;;5014758;28;20061;-44
2022/12/17 20:01:27;;;;;;;140.18;53.25;;;-2.60;99.90;;;;;;5033556;28;20056;-41
2022/12/17 20:03:54;;;;;;;148.25;52.33;;;-2.60;99.90;;;;;;5034354;28;20146;-43
2022/12/17 20:06:23;;;;;;;141.90;54.30;;;-2.50;99.90;;;;;;5033539;28;20229;-42
2022/12/17 20:08:49;;;;;;;131.80;53.42;;;-2.60;99.90;;;;;;5017584;28;20421;-42
2022/12/17 20:11:31;;;;;;;132.77;52.10;;;-2.60;99.90;;;;;;5033721;28;20152;-44
2022/12/17 20:14:13;;;;;;;138.00;53.85;;;-2.60;99.90;;;;;;5014346;28;20103;-44
2022/12/17 20:16:46;;;;;;;133.77;54.53;;;-2.50;99.90;;;;;;5025529;28;20056;-43
2022/12/17 20:19:18;;;;;;;130.07;54.03;;;-2.50;99.90;;;;;;5017308;28;20060;-43
2022/12/17 20:21:44;;;;;;;136.50;57.65;;;-2.50;99.90;;;;;;5015636;28;20052;-41
2022/12/17 20:24:11;;;;;;;128.82;52.22;;;-2.60;99.90;;;;;;5021738;28;20495;-41
2022/12/17 20:26:38;;;;;;;128.25;53.60;;;-2.60;99.90;;;;;;5020229;28;20120;-44
2022/12/17 20:29:04;;;;;;;134.43;52.85;;;-2.50;99.90;;;;;;5012875;28;20061;-41
2022/12/17 20:31:30;;;;;;;128.90;56.72;;;-2.60;99.90;;;;;;5023396;28;20144;-44
2022/12/17 20:33:58;;;;;;;131.40;54.90;;;-2.60;99.90;;;;;;5013347;28;20053;-41
2022/12/17 20:36:23;;;;;;;128.35;56.00;;;-2.60;99.90;;;;;;5100725;27;20115;-41
2022/12/17 20:38:49;;;;;;;132.52;55.63;;;-2.60;99.90;;;;;;5124674;27;20039;-45
2022/12/17 20:41:23;;;;;;;127.85;54.53;;;-2.70;99.90;;;;;;5138258;27;20070;-42
2022/12/17 20:43:50;;;;;;;137.57;60.97;;;-2.70;99.90;;;;;;5138139;27;20537;-41
2022/12/17 20:46:17;;;;;;;132.70;55.78;;;-2.60;99.90;;;;;;5137313;27;20053;-41
2022/12/17 20:48:44;;;;;;;124.78;53.35;;;-2.60;99.90;;;;;;5125787;27;20042;-43
2022/12/17 20:51:30;;;;;;;111.85;50.83;;;-2.60;99.90;;;;;;5135904;27;20053;-41
2022/12/17 20:53:58;;;;;;;115.18;52.50;;;-2.70;99.90;;;;;;5123567;27;20058;-43
2022/12/17 20:56:30;;;;;;;122.47;54.85;;;-2.80;99.90;;;;;;5108000;27;20846;-41
2022/12/17 20:59:01;;;;;;;120.25;54.58;;;-2.80;99.90;;;;;;5129219;27;20059;-42
2022/12/17 21:01:29;;;;;;;133.88;57.85;;;-2.90;99.90;;;;;;5133400;27;20572;-44
2022/12/17 21:03:56;;;;;;;125.15;53.88;;;-2.80;99.90;;;;;;5113417;27;21078;-43
2022/12/17 21:06:33;;;;;;;116.53;51.55;;;-2.90;99.90;;;;;;5122776;27;20050;-44
2022/12/17 21:08:59;;;;;;;125.03;53.85;;;-2.90;99.90;;;;;;5121816;27;20039;-43
2022/12/17 21:11:26;;;;;;;122.07;53.17;;;-2.90;99.90;;;;;;5130731;27;20047;-43
2022/12/17 21:13:53;;;;;;;135.60;56.28;;;-2.90;99.90;;;;;;5123940;27;20107;-43
2022/12/17 21:16:25;;;;;;;133.50;58.20;;;-2.80;99.90;;;;;;5126700;27;20038;-42
2022/12/17 21:18:50;;;;;;;143.15;59.22;;;-2.90;99.90;;;;;;5123958;27;20087;-45
2022/12/17 21:21:19;;;;;;;124.30;53.25;;;-2.80;99.90;;;;;;5125007;27;20031;-43
2022/12/17 21:23:46;;;;;;;128.50;53.50;;;-2.80;99.90;;;;;;5125925;27;20069;-41
2022/12/17 21:26:13;;;;;;;144.52;64.70;;;-2.70;99.90;;;;;;5122757;27;20043;-44
2022/12/17 21:28:44;;;;;;;134.77;57.13;;;-2.80;99.90;;;;;;5129317;27;20083;-43
2022/12/17 21:31:19;;;;;;;135.43;56.00;;;-2.80;99.90;;;;;;5128607;27;20050;-45
2022/12/17 21:33:48;;;;;;;139.48;57.97;;;-2.80;99.90;;;;;;5118767;27;20114;-43
2022/12/17 21:36:16;;;;;;;138.30;56.97;;;-2.80;99.90;;;;;;5093197;27;20058;-42
2022/12/17 21:38:42;;;;;;;127.57;53.55;;;-2.80;99.90;;;;;;5110138;27;20056;-46
2022/12/17 21:41:16;;;;;;;124.22;55.47;;;-2.80;99.90;;;;;;5110248;27;20054;-45
2022/12/17 21:43:42;;;;;;;122.10;54.50;;;-2.80;99.90;;;;;;5114665;27;20070;-43
2022/12/17 21:46:10;;;;;;;132.48;53.22;;;-2.70;99.90;;;;;;5114568;27;20049;-41
2022/12/17 21:48:40;;;;;;;127.40;55.42;;;-2.80;99.90;;;;;;5122308;27;20046;-42
2022/12/17 21:51:09;;;;;;;145.20;58.05;;;-2.90;99.90;;;;;;5124030;27;20489;-44
2022/12/17 21:53:34;;;;;;;141.15;57.10;;;-2.80;99.90;;;;;;5125103;27;20039;-43
2022/12/17 21:56:05;;;;;;;147.32;58.70;;;-2.80;99.90;;;;;;5130171;27;20050;-41
2022/12/17 21:58:32;;;;;;;138.95;57.55;;;-2.80;99.90;;;;;;5123917;27;20453;-41
2022/12/17 22:00:58;;;;;;;131.75;56.70;;;-2.80;99.90;;;;;;5132370;27;20047;-43
2022/12/17 22:03:24;;;;;;;149.98;61.72;;;-2.80;99.90;;;;;;5138361;27;20355;-40
2022/12/17 22:05:49;;;;;;;132.95;57.67;;;-2.80;99.90;;;;;;5132156;27;20035;-42
2022/12/17 22:08:15;;;;;;;153.38;62.22;;;-2.90;99.90;;;;;;5127705;27;20045;-44
2022/12/17 22:10:42;;;;;;;146.23;59.65;;;-2.90;99.90;;;;;;5132358;27;20063;-41
2022/12/17 22:15:55;;;;;;;142.32;62.65;;;-2.80;99.90;;;;;;5122801;27;20577;-41
2022/12/17 22:18:21;;;;;;;136.30;58.70;;;-2.90;99.90;;;;;;5115329;27;20054;-42
2022/12/17 22:20:59;;;;;;;136.85;57.58;;;-3.00;99.90;;;;;;5123433;27;20504;-42
2022/12/17 22:23:25;;;;;;;150.05;63.28;;;-2.90;99.90;;;;;;5136292;27;20149;-42
2022/12/17 22:25:51;;;;;;;144.30;58.38;;;-2.80;99.90;;;;;;5117552;27;20111;-43
2022/12/17 22:28:16;;;;;;;144.50;59.55;;;-2.90;99.90;;;;;;5122247;27;20090;-41
2022/12/17 22:33:26;;;;;;;136.68;56.35;;;-2.80;99.90;;;;;;5115423;27;20459;-41
2022/12/17 22:35:52;;;;;;;153.20;61.75;;;-2.80;99.90;;;;;;5115149;27;20585;-41
2022/12/17 22:38:17;;;;;;;146.23;60.83;;;-2.90;99.90;;;;;;5130867;27;20070;-45
2022/12/17 22:40:43;;;;;;;152.70;62.20;;;-2.90;99.90;;;;;;5136208;27;20054;-43
2022/12/17 22:43:28;;;;;;;145.25;57.25;;;-2.80;99.90;;;;;;5100702;27;20505;-41
2022/12/17 22:45:58;;;;;;;139.13;56.25;;;-2.80;99.90;;;;;;5126841;27;20046;-41
2022/12/17 22:48:24;;;;;;;146.40;56.72;;;-2.90;99.90;;;;;;5130941;27;20062;-42
2022/12/17 22:50:49;;;;;;;144.85;62.75;;;-2.80;99.90;;;;;;5114805;27;20035;-41
2022/12/17 22:53:15;;;;;;;138.32;57.72;;;-2.80;99.90;;;;;;5124586;27;20051;-42
2022/12/17 22:55:41;;;;;;;134.48;52.25;;;-2.80;99.90;;;;;;5123145;27;20054;-41
2022/12/17 22:58:06;;;;;;;135.85;57.63;;;-2.80;99.90;;;;;;5116139;27;20495;-44
2022/12/17 23:00:34;;;;;;;135.80;52.92;;;-2.90;99.90;;;;;;5114570;27;20108;-43
2022/12/17 23:02:59;;;;;;;138.15;58.45;;;-2.70;99.90;;;;;;5115279;27;20046;-43
2022/12/17 23:05:27;;;;;;;133.52;53.42;;;-2.80;99.90;;;;;;5121131;27;20404;-46
2022/12/17 23:07:53;;;;;;;140.48;55.45;;;-2.90;99.90;;;;;;5133072;27;20064;-42
2022/12/17 23:10:19;;;;;;;139.60;61.38;;;-2.80;99.90;;;;;;5132564;27;20086;-41
2022/12/17 23:12:54;;;;;;;135.80;59.15;;;-2.80;99.90;;;;;;5114885;27;20057;-42
2022/12/17 23:15:24;;;;;;;141.52;56.30;;;-2.80;99.90;;;;;;5114345;27;20537;-44
2022/12/17 23:17:52;;;;;;;124.78;53.30;;;-2.90;99.90;;;;;;5115183;27;20055;-43
2022/12/17 23:20:18;;;;;;;129.95;51.72;;;-2.90;99.90;;;;;;5117580;27;20070;-44
2022/12/17 23:22:44;;;;;;;131.75;53.85;;;-3.00;99.90;;;;;;5118930;27;20043;-43
2022/12/17 23:25:11;;;;;;;125.85;52.45;;;-2.90;99.90;;;;;;5117674;27;20054;-45
2022/12/17 23:27:36;;;;;;;127.43;51.40;;;-3.00;99.90;;;;;;5119710;27;20829;-44
2022/12/17 23:30:04;;;;;;;140.63;53.95;;;-3.00;99.90;;;;;;5132620;27;20050;-43
2022/12/17 23:32:29;;;;;;;131.85;52.65;;;-3.00;99.90;;;;;;5119082;27;20096;-42
2022/12/17 23:34:58;;;;;;;142.15;55.13;;;-2.90;99.90;;;;;;5118900;27;20047;-44
2022/12/17 23:37:24;;;;;;;135.25;55.83;;;-3.00;99.90;;;;;;5108717;27;20051;-42
2022/12/17 23:39:50;;;;;;;128.10;55.28;;;-2.90;99.90;;;;;;5139171;27;20045;-42
2022/12/17 23:42:15;;;;;;;117.25;53.75;;;-2.90;99.90;;;;;;5125567;27;21734;-45
2022/12/17 23:44:41;;;;;;;110.90;52.40;;;-3.10;99.90;;;;;;5107086;27;20457;-42
2022/12/17 23:47:07;;;;;;;120.43;52.80;;;-3.10;99.90;;;;;;5115932;27;20066;-42
2022/12/17 23:49:32;;;;;;;123.55;50.92;;;-3.20;99.90;;;;;;5129852;27;20050;-41
2022/12/17 23:51:58;;;;;;;122.57;53.47;;;-3.10;99.90;;;;;;5122530;27;20438;-41
2022/12/17 23:54:24;;;;;;;129.32;55.35;;;-3.20;99.90;;;;;;5127562;27;20678;-41
2022/12/17 23:56:50;;;;;;;119.63;52.80;;;-3.10;99.90;;;;;;5102090;27;20073;-42
2022/12/17 23:59:15;;;;;;;123.05;49.33;;;-3.10;99.90;;;;;;5100275;27;20061;-42
